Time;durP1;ratioP1;P1;durP2;ratioP2;P2;SDS_P1;SDS_P2;PMS_P1;PMS_P2;Temp;Humidity;BMP_temperature;BMP_pressure;BME280_temperature;BME280_humidity;BME280_pressure;Samples;Min_cycle;Max_cycle;Signal;HPM_P1;HPM_P2
2022/04/16 00:02:05;;;;;;;19.40;10.77;;;;;;;5.69;91.89;102913.56;5016594;28;20030;-89
2022/04/16 00:04:31;;;;;;;18.07;11.17;;;;;;;5.69;92.19;102919.75;5017439;28;20283;-89
2022/04/16 00:06:57;;;;;;;17.13;11.23;;;;;;;5.73;92.44;102930.84;5016188;28;20042;-88
2022/04/16 00:09:23;;;;;;;17.43;11.17;;;;;;;5.68;92.42;102925.22;5017014;28;20030;-89
2022/04/16 00:11:51;;;;;;;18.40;11.55;;;;;;;5.66;92.85;102916.59;5018336;28;20021;-89
2022/04/16 00:17:02;;;;;;;;;;;;;;;;;;;;;
2022/04/16 00:19:42;;;;;;;18.92;10.85;;;;;;;5.63;92.96;102924.94;5048404;28;20089;-89
2022/04/16 00:22:12;;;;;;;16.08;10.68;;;;;;;5.56;93.29;102916.81;5057684;28;20025;-89
2022/04/16 00:24:50;;;;;;;19.80;10.98;;;;;;;5.57;93.52;102907.81;5052082;28;20032;-89
2022/04/16 00:27:34;;;;;;;22.08;11.90;;;;;;;5.57;93.48;102927.28;5054034;28;20037;-89
2022/04/16 00:30:10;;;;;;;19.40;11.65;;;;;;;5.46;93.56;102909.03;5041029;28;20377;-89
2022/04/16 00:33:12;;;;;;;16.83;11.03;;;;;;;5.55;93.85;102928.44;5036055;28;20025;-88
2022/04/16 00:35:42;;;;;;;19.10;11.03;;;;;;;5.52;93.43;102928.78;5056939;23;20305;-89
2022/04/16 00:38:07;;;;;;;21.42;11.40;;;;;;;5.45;94.16;102924.16;5016244;28;20097;-89
2022/04/16 00:40:39;;;;;;;19.52;11.73;;;;;;;5.49;94.00;102929.94;5015243;28;20512;-89
2022/04/16 00:43:05;;;;;;;19.23;11.52;;;;;;;5.40;94.69;102918.50;5015087;28;20513;-89
2022/04/16 00:45:34;;;;;;;21.10;11.65;;;;;;;5.34;94.84;102919.22;4997940;28;20032;-88
2022/04/16 00:48:14;;;;;;;21.70;11.35;;;;;;;5.29;94.31;102919.75;5011191;28;20027;-89
2022/04/16 00:51:39;;;;;;;21.27;12.75;;;;;;;5.39;95.01;102937.31;4995114;28;20033;-88
2022/04/16 00:54:29;;;;;;;16.73;10.57;;;;;;;5.34;94.43;102931.66;4995454;28;20705;-89
2022/04/16 00:57:04;;;;;;;21.30;10.83;;;;;;;5.21;95.10;102911.78;4995191;28;20801;-89
2022/04/16 00:59:35;;;;;;;21.25;11.68;;;;;;;5.18;95.20;102914.75;4994601;28;20018;-89
2022/04/16 01:02:21;;;;;;;23.23;12.13;;;;;;;5.19;95.49;102924.41;4995468;28;20037;-89
2022/04/16 01:05:04;;;;;;;17.75;12.18;;;;;;;5.04;95.40;102910.97;4995110;28;20018;-89
2022/04/16 01:08:05;;;;;;;20.60;12.70;;;;;;;5.12;96.04;102921.59;4993894;28;20635;-89
2022/04/16 01:10:32;;;;;;;19.58;12.50;;;;;;;5.08;96.21;102916.78;4994194;28;20049;-89
2022/04/16 01:13:19;;;;;;;22.38;12.57;;;;;;;5.07;96.56;102929.22;4994500;28;20042;-89
2022/04/16 01:16:29;;;;;;;24.75;13.23;;;;;;;4.97;96.24;102916.13;4994772;28;20022;-89
2022/04/16 01:19:01;;;;;;;26.98;13.60;;;;;;;5.04;96.83;102929.56;4990784;28;20042;-89
2022/04/16 01:21:46;;;;;;;23.90;13.87;;;;;;;5.07;96.81;102939.06;4942680;28;20065;-89
2022/04/16 01:24:14;;;;;;;26.93;14.27;;;;;;;5.04;97.29;102937.53;5007061;23;20339;-89
2022/04/16 01:26:51;;;;;;;23.65;15.02;;;;;;;4.90;97.57;102920.47;5033768;28;20017;-89
2022/04/16 01:32:57;;;;;;;24.50;14.23;;;;;;;4.91;97.43;102930.09;4972569;28;20038;-90
2022/04/16 01:35:24;;;;;;;22.02;12.05;;;;;;;4.96;98.49;102941.03;4917205;29;20123;-89
2022/04/16 01:37:49;;;;;;;27.63;14.77;;;;;;;5.08;98.03;102943.38;4960588;28;20047;-89
2022/04/16 01:40:15;;;;;;;24.77;14.03;;;;;;;5.02;97.71;102952.00;5022620;28;20057;-88
2022/04/16 01:42:43;;;;;;;24.75;14.07;;;;;;;4.98;97.69;102938.22;5020971;28;20033;-89
2022/04/16 01:45:10;;;;;;;26.95;15.10;;;;;;;4.96;97.94;102954.31;5017919;28;20022;-89
2022/04/16 01:47:38;;;;;;;26.15;14.57;;;;;;;4.96;98.17;102949.00;5021929;28;20037;-88
2022/04/16 01:50:10;;;;;;;28.13;15.18;;;;;;;5.01;98.73;102953.84;5018712;28;20543;-88
2022/04/16 01:52:36;;;;;;;26.23;14.38;;;;;;;4.98;98.47;102951.53;5021318;28;20029;-89
2022/04/16 01:55:03;;;;;;;25.92;14.90;;;;;;;5.02;98.71;102949.34;5013250;28;20643;-88
2022/04/16 01:57:28;;;;;;;21.47;13.80;;;;;;;4.96;98.79;102956.16;5013815;28;20382;-89
2022/04/16 01:59:56;;;;;;;29.23;14.90;;;;;;;4.95;98.92;102949.19;5054013;22;20319;-89
2022/04/16 02:02:24;;;;;;;25.80;14.30;;;;;;;4.98;98.77;102946.22;5032424;28;20443;-89
2022/04/16 02:04:56;;;;;;;28.50;15.70;;;;;;;4.97;99.18;102941.88;5032907;28;20276;-90
2022/04/16 02:07:29;;;;;;;26.83;15.65;;;;;;;5.00;99.55;102947.69;5032507;28;20026;-88
2022/04/16 02:10:34;;;;;;;25.52;14.35;;;;;;;4.97;99.17;102952.50;5009553;28;20169;-88
2022/04/16 02:13:06;;;;;;;28.05;14.43;;;;;;;4.84;99.36;102929.94;4999960;28;20029;-88
2022/04/16 02:19:44;;;;;;;24.02;13.77;;;;;;;4.89;99.07;102934.75;5001049;28;20053;-88
2022/04/16 02:22:48;;;;;;;25.55;14.52;;;;;;;4.98;99.12;102947.03;5012881;28;20029;-89
2022/04/16 02:25:28;;;;;;;33.63;15.57;;;;;;;4.91;98.95;102939.88;5010912;28;20103;-89
2022/04/16 02:28:06;;;;;;;30.73;15.40;;;;;;;4.76;99.32;102929.94;5013120;28;20102;-89
2022/04/16 02:30:43;;;;;;;26.70;15.57;;;;;;;4.76;99.66;102934.41;5012522;28;20060;-89
2022/04/16 02:35:40;;;;;;;30.73;15.27;;;;;;;4.72;100.00;102933.94;5208018;22;20060;-88
2022/04/16 02:38:05;;;;;;;29.55;15.38;;;;;;;4.72;100.00;102947.22;5032122;28;20037;-89
2022/04/16 02:40:39;;;;;;;29.23;15.57;;;;;;;4.57;100.00;102939.06;5031111;28;20366;-88
2022/04/16 02:43:04;;;;;;;30.98;16.75;;;;;;;4.70;100.00;102957.16;5031170;28;20037;-89
2022/04/16 02:48:39;;;;;;;26.70;14.77;;;;;;;4.56;100.00;102950.72;5031854;28;20102;-89
2022/04/16 02:51:14;;;;;;;31.67;16.25;;;;;;;4.47;100.00;102959.66;5031874;28;20236;-88
2022/04/16 02:53:46;;;;;;;30.48;15.73;;;;;;;4.34;100.00;102941.53;5032170;28;20025;-88
2022/04/16 02:56:11;;;;;;;29.77;15.90;;;;;;;4.35;100.00;102952.00;5031332;28;20128;-89
2022/04/16 02:58:36;;;;;;;27.07;15.93;;;;;;;4.38;100.00;102956.97;5031578;28;20064;-89
2022/04/16 03:01:16;;;;;;;32.13;16.67;;;;;;;4.31;100.00;102952.47;5032075;28;20013;-89
2022/04/16 03:03:45;;;;;;;31.17;16.80;;;;;;;4.24;100.00;102953.16;5031321;28;20068;-90
2022/04/16 03:06:13;;;;;;;32.30;16.77;;;;;;;4.19;100.00;102950.16;5031686;28;20147;-90
2022/04/16 03:08:38;;;;;;;33.25;17.13;;;;;;;4.21;100.00;102960.59;5031517;28;20060;-89
2022/04/16 03:11:08;;;;;;;31.70;16.90;;;;;;;4.26;100.00;102978.69;5031677;28;20022;-89
2022/04/16 03:13:39;;;;;;;31.77;16.38;;;;;;;4.14;100.00;102952.44;5031510;28;20036;-89
2022/04/16 03:19:05;;;;;;;30.48;16.55;;;;;;;4.11;100.00;102974.00;5031613;28;20044;-89
2022/04/16 03:21:30;;;;;;;28.77;16.52;;;;;;;4.02;100.00;102951.91;5031936;28;20025;-89
2022/04/16 03:24:02;;;;;;;32.90;17.20;;;;;;;4.05;100.00;102964.88;5031428;28;20028;-89
2022/04/16 03:26:27;;;;;;;32.58;16.65;;;;;;;3.97;100.00;102967.50;5019465;28;20033;-89
2022/04/16 03:28:52;;;;;;;29.63;16.83;;;;;;;3.99;100.00;102973.47;5030925;28;20037;-89
2022/04/16 03:31:17;;;;;;;32.40;17.47;;;;;;;3.99;100.00;102976.13;5031830;28;20025;-88
2022/04/16 03:33:50;;;;;;;34.20;17.77;;;;;;;4.06;100.00;102987.75;5060785;22;20168;-88
2022/04/16 03:36:15;;;;;;;32.20;16.95;;;;;;;4.04;100.00;102984.41;5035583;28;20474;-89
2022/04/16 03:38:40;;;;;;;40.50;18.50;;;;;;;4.08;100.00;102975.16;5035160;28;20112;-89
2022/04/16 03:41:09;;;;;;;33.23;17.07;;;;;;;4.05;100.00;102970.16;5035339;28;20038;-89
2022/04/16 03:43:34;;;;;;;31.27;18.10;;;;;;;4.05;100.00;102986.09;5035084;28;20021;-89
2022/04/16 03:45:59;;;;;;;33.43;18.27;;;;;;;4.05;100.00;102983.44;5035698;28;20152;-89
2022/04/16 03:48:31;;;;;;;33.10;18.33;;;;;;;3.97;100.00;102970.16;5034513;28;20026;-89
2022/04/16 03:51:14;;;;;;;35.57;17.47;;;;;;;3.91;100.00;102968.13;5035255;28;20288;-89
2022/04/16 04:00:09;;;;;;;32.88;17.42;;;;;;;3.93;100.00;102982.88;5034774;28;20135;-89
2022/04/16 04:02:36;;;;;;;36.00;19.00;;;;;;;3.95;100.00;102980.09;5035291;28;20092;-89
2022/04/16 04:05:02;;;;;;;33.60;17.52;;;;;;;3.89;100.00;102983.38;5034887;28;20045;-89
2022/04/16 04:07:28;;;;;;;35.95;17.52;;;;;;;3.83;100.00;102986.69;5035565;28;20030;-90
2022/04/16 04:09:53;;;;;;;33.83;17.93;;;;;;;3.81;100.00;102986.00;5035418;28;20369;-89
2022/04/16 04:12:19;;;;;;;34.42;17.88;;;;;;;3.78;100.00;102990.66;5040424;28;20576;-90
2022/04/16 04:14:46;;;;;;;34.63;18.20;;;;;;;3.69;100.00;102982.81;5035178;28;20028;-90
2022/04/16 04:17:12;;;;;;;36.22;17.98;;;;;;;3.66;100.00;102983.94;5035171;28;20026;-90
2022/04/16 04:19:42;;;;;;;35.50;18.47;;;;;;;3.65;100.00;102990.25;5050359;28;20055;-89
2022/04/16 04:22:11;;;;;;;35.00;17.67;;;;;;;3.64;100.00;102994.72;5054873;28;20279;-90
2022/04/16 04:24:37;;;;;;;39.05;18.63;;;;;;;3.67;100.00;102995.38;5054763;28;20044;-90
2022/04/16 04:27:03;;;;;;;36.63;18.33;;;;;;;3.67;100.00;102992.72;5054473;28;20067;-90
2022/04/16 04:29:29;;;;;;;35.13;18.52;;;;;;;3.64;100.00;103005.31;5054073;28;20053;-90
2022/04/16 04:31:56;;;;;;;33.88;18.33;;;;;;;3.59;100.00;103004.94;5054689;28;20361;-90
2022/04/16 04:34:25;;;;;;;35.78;17.90;;;;;;;3.57;100.00;103001.63;5053785;28;20065;-89
2022/04/16 04:36:50;;;;;;;37.90;18.75;;;;;;;3.59;100.00;103004.94;5054702;28;20036;-90
2022/04/16 04:39:16;;;;;;;38.90;18.53;;;;;;;3.64;100.00;103013.28;5054043;28;20033;-89
2022/04/16 04:41:47;;;;;;;37.13;19.30;;;;;;;3.69;100.00;103017.28;5054408;28;20021;-89
2022/04/16 04:44:14;;;;;;;37.20;20.27;;;;;;;3.71;100.00;103017.97;5053649;28;20025;-90
2022/04/16 04:46:41;;;;;;;40.15;19.95;;;;;;;3.69;100.00;103020.75;5052744;28;20085;-90
2022/04/16 04:49:08;;;;;;;39.38;19.58;;;;;;;3.63;100.00;103021.41;5053679;28;20499;-90
2022/04/16 04:51:37;;;;;;;34.85;19.17;;;;;;;3.63;100.00;103032.81;5054106;28;20530;-89
2022/04/16 04:57:40;;;;;;;39.40;20.73;;;;;;;3.61;100.00;103015.41;4940580;29;20527;-89
2022/04/16 05:00:15;;;;;;;39.65;20.67;;;;;;;3.58;100.00;103005.13;5010759;28;20042;-90
2022/04/16 05:02:49;;;;;;;42.13;20.20;;;;;;;3.58;100.00;103011.25;5014356;28;20032;-89
2022/04/16 05:05:16;;;;;;;40.10;20.30;;;;;;;3.75;100.00;103035.19;4994830;28;20280;-89
2022/04/16 05:07:50;;;;;;;37.58;19.25;;;;;;;3.68;100.00;103027.03;4994372;28;20027;-90
2022/04/16 05:10:16;;;;;;;45.17;21.13;;;;;;;3.70;100.00;103027.72;4994089;28;20088;-89
2022/04/16 05:12:41;;;;;;;46.17;21.70;;;;;;;3.68;100.00;103021.72;4994546;28;20023;-89
2022/04/16 05:15:07;;;;;;;41.47;21.17;;;;;;;3.86;100.00;103044.69;4993896;28;20022;-90
2022/04/16 05:17:37;;;;;;;43.90;21.50;;;;;;;3.79;100.00;103032.09;4994205;28;20034;-91
2022/04/16 05:20:09;;;;;;;41.03;20.70;;;;;;;3.86;100.00;103034.09;4993528;28;20485;-91
2022/04/16 05:22:35;;;;;;;43.70;21.15;;;;;;;3.92;100.00;103044.94;4994694;28;20030;-90
2022/04/16 05:25:18;;;;;;;40.40;21.60;;;;;;;3.93;100.00;103033.28;4993989;28;20677;-90
2022/04/16 05:27:43;;;;;;;42.03;20.73;;;;;;;4.02;100.00;103043.94;4994429;28;20027;-92
2022/04/16 05:30:54;;;;;;;41.70;20.67;;;;;;;4.11;100.00;103053.59;4992185;28;20500;-91
2022/04/16 05:34:29;;;;;;;;;;;;;;;;;;;;;
2022/04/16 05:40:14;;;;;;;42.58;20.75;;;;;;;4.22;100.00;103048.03;4858880;29;20151;-91
2022/04/16 05:46:37;;;;;;;42.03;20.77;;;;;;;4.40;100.00;103047.91;4895778;29;20043;-91
2022/04/16 05:56:16;;;;;;;40.88;21.58;;;;;;;4.81;100.00;103062.25;5209709;22;20057;-92
2022/04/16 06:05:31;;;;;;;42.20;21.60;;;;;;;5.09;100.00;103067.28;5031792;28;20052;-90
2022/04/16 06:11:28;;;;;;;45.28;22.55;;;;;;;5.23;100.00;103074.59;5014014;28;20107;-92
2022/04/16 06:14:18;;;;;;;48.88;22.88;;;;;;;5.44;100.00;103089.19;5009333;28;20093;-92
2022/04/16 06:17:25;;;;;;;40.57;21.20;;;;;;;5.43;100.00;103084.88;5013366;28;20030;-92
2022/04/16 06:19:53;;;;;;;45.70;23.80;;;;;;;5.54;100.00;103095.16;4992710;28;20042;-92
2022/04/16 06:22:45;;;;;;;52.80;24.10;;;;;;;5.55;100.00;103082.72;5013528;28;20061;-92
2022/04/16 06:25:38;;;;;;;49.70;23.42;;;;;;;5.68;100.00;103090.16;5012153;28;20029;-92
2022/04/16 06:28:04;;;;;;;48.13;22.95;;;;;;;5.82;100.00;103107.25;5015503;28;20092;-92
2022/04/16 06:30:47;;;;;;;46.60;24.40;;;;;;;5.92;100.00;103102.59;5017205;28;20022;-91
2022/04/16 06:33:16;;;;;;;47.95;24.10;;;;;;;5.97;100.00;103102.06;5031430;28;20025;-91
2022/04/16 06:35:54;;;;;;;44.88;24.10;;;;;;;6.09;100.00;103107.91;5034966;28;20022;-91
2022/04/16 06:38:26;;;;;;;49.03;25.35;;;;;;;6.15;100.00;103102.72;5035871;28;20066;-91
2022/04/16 06:41:05;;;;;;;47.17;24.13;;;;;;;6.24;100.00;103108.84;5030678;28;20022;-92
2022/04/16 06:46:58;;;;;;;50.53;24.48;;;;;;;6.42;100.00;103115.75;5021876;28;20069;-91
2022/04/16 06:49:35;;;;;;;52.37;24.83;;;;;;;6.44;100.00;103106.56;5032061;28;20040;-91
2022/04/16 06:52:53;;;;;;;54.07;25.07;;;;;;;6.62;100.00;103119.66;5032624;28;20273;-91
2022/04/16 06:55:19;;;;;;;46.80;24.25;;;;;;;6.66;100.00;103106.78;4977173;28;1573438;-91
2022/04/16 06:57:44;;;;;;;46.87;24.47;;;;;;;6.76;100.00;103101.25;5034938;28;20014;-91
2022/04/16 07:00:44;;;;;;;48.93;24.73;;;;;;;6.88;100.00;103104.34;5033938;28;20037;-91
2022/04/16 07:03:28;;;;;;;48.40;24.25;;;;;;;7.03;100.00;103104.41;5031811;28;20034;-91
2022/04/16 07:06:36;;;;;;;45.22;24.08;;;;;;;7.15;100.00;103104.78;5034666;28;20026;-92
2022/04/16 07:09:12;;;;;;;48.47;22.48;;;;;;;7.28;100.00;103103.19;5001311;28;20038;-91
2022/04/16 07:15:27;;;;;;;36.37;18.37;;;;;;;7.49;99.80;103100.84;4992907;28;20107;-92
2022/04/16 07:18:02;;;;;;;42.70;22.37;;;;;;;7.56;99.07;103107.13;5027815;28;20311;-91
2022/04/16 07:20:41;;;;;;;39.65;20.42;;;;;;;7.67;98.17;103105.84;5027400;28;20125;-92
2022/04/16 07:23:28;;;;;;;42.40;21.67;;;;;;;7.77;97.81;103110.94;5031214;28;20109;-92
2022/04/16 07:29:17;;;;;;;39.88;19.15;;;;;;;8.08;96.51;103125.94;5035033;28;20084;-90
2022/04/16 07:35:31;;;;;;;;;;;;;;;;;;;;;
2022/04/16 07:38:45;;;;;;;;;;;;;;;;;;;;;
2022/04/16 07:44:21;;;;;;;31.00;17.33;;;;;;;8.46;94.83;103117.78;5484043;22;20061;-91
2022/04/16 07:54:48;;;;;;;33.58;17.52;;;;;;;8.84;92.92;103136.34;4942505;29;20080;-91
2022/04/16 07:57:16;;;;;;;38.25;19.58;;;;;;;8.84;91.72;103130.19;4954378;29;20035;-90
2022/04/16 08:18:40;;;;;;;31.97;18.90;;;;;;;9.57;88.11;103145.25;5059707;22;20365;-91
2022/04/16 09:57:38;;;;;;;13.13;8.30;;;;;;;13.78;61.38;103142.38;5934079;22;20415;-90
2022/04/16 10:03:40;;;;;;;9.07;6.88;;;;;;;13.89;59.10;103127.34;5033036;28;20036;-91
2022/04/16 10:06:21;;;;;;;8.55;6.53;;;;;;;13.95;58.11;103119.44;5032274;28;20560;-91
2022/04/16 10:08:48;;;;;;;7.95;5.90;;;;;;;14.08;56.01;103117.38;5031705;28;20030;-91
2022/04/16 10:24:09;;;;;;;5.77;4.93;;;;;;;14.61;52.90;103115.03;5040526;22;20671;-91
2022/04/16 10:26:43;;;;;;;6.43;4.53;;;;;;;14.72;52.32;103118.06;5034540;28;20044;-91
2022/04/16 10:46:50;;;;;;;4.05;3.38;;;;;;;14.78;50.18;103112.56;5947762;22;20442;-90
2022/04/16 10:49:41;;;;;;;5.07;3.60;;;;;;;14.78;52.16;103120.66;5032102;28;20037;-90
2022/04/16 10:56:21;;;;;;;5.80;4.28;;;;;;;15.14;49.03;103110.75;5032822;28;20043;-91
2022/04/16 11:04:35;;;;;;;5.93;4.20;;;;;;;15.21;47.10;103115.22;5470051;22;20069;-91
2022/04/16 11:41:28;;;;;;;6.43;4.95;;;;;;;15.99;46.40;103098.88;5164266;22;20065;-91
2022/04/16 11:44:48;;;;;;;;;;;;;;;;;;;;;
2022/04/16 12:35:55;;;;;;;5.72;5.07;;;;;;;17.56;42.50;103073.09;5199428;22;20064;-91
2022/04/16 12:38:39;;;;;;;7.57;5.40;;;;;;;17.54;39.87;103069.81;5014377;28;20037;-90
2022/04/16 12:41:40;;;;;;;;;;;;;;;;;;;;;
2022/04/16 12:57:58;;;;;;;6.25;4.55;;;;;;;17.43;40.59;103064.50;5016324;28;20046;-90
2022/04/16 13:07:07;;;;;;;6.15;3.88;;;;;;;17.61;35.36;103061.50;4377735;26;20042;-91
2022/04/16 13:16:22;;;;;;;6.03;4.57;;;;;;;17.94;37.88;103045.38;1493817;22;20045;-91
2022/04/16 14:59:43;;;;;;;8.37;6.43;;;;;;;18.59;33.04;102961.31;5818043;22;20049;-94
2022/04/16 16:40:06;;;;;;;5.75;4.85;;;;;;;17.95;32.16;102909.50;4997872;28;20049;-92
2022/04/16 16:48:40;;;;;;;6.10;4.40;;;;;;;17.50;31.32;102889.81;4980504;28;20105;-92
2022/04/16 17:05:06;;;;;;;5.13;4.17;;;;;;;17.30;31.38;102887.69;4957237;29;20308;-91
2022/04/16 17:07:41;;;;;;;4.95;4.20;;;;;;;17.25;31.12;102899.28;4956690;29;20099;-92
2022/04/16 17:10:27;;;;;;;;;;;;;;;;;;;;;
2022/04/16 17:13:26;;;;;;;6.25;3.90;;;;;;;17.02;31.42;102889.50;4961832;29;20118;-92
2022/04/16 17:19:31;;;;;;;4.35;3.63;;;;;;;16.65;33.24;102909.00;5075515;28;20133;-92
2022/04/16 17:22:10;;;;;;;4.57;3.72;;;;;;;16.37;33.27;102893.72;5074672;28;20098;-93
2022/04/16 17:33:29;;;;;;;4.77;3.17;;;;;;;15.40;34.87;102886.31;5392650;22;20318;-93
2022/04/16 17:42:54;;;;;;;;;;;;;;;;;;;;;
2022/04/16 18:00:57;;;;;;;;;;;;;;;;;;;;;
2022/04/16 18:07:29;;;;;;;5.85;2.28;;;;;;;13.64;38.15;102906.50;5021376;28;20037;-91
2022/04/16 18:10:54;;;;;;;4.30;2.08;;;;;;;13.47;38.97;102904.44;4947073;29;20047;-92
2022/04/16 18:13:19;;;;;;;7.43;2.00;;;;;;;13.25;39.03;102905.94;4927354;29;20046;-92
2022/04/16 18:15:47;;;;;;;4.27;2.00;;;;;;;13.08;39.59;102909.22;4926560;29;20103;-92
2022/04/16 18:30:46;;;;;;;5.18;1.88;;;;;;;12.41;40.70;102947.50;5092693;28;20044;-92
2022/04/16 18:37:21;;;;;;;2.60;1.73;;;;;;;12.08;41.14;102949.34;5095577;28;20058;-91
2022/04/16 19:11:49;;;;;;;6.83;2.47;;;;;;;10.66;45.39;102955.31;5131550;22;20306;-89
2022/04/16 19:17:14;;;;;;;3.28;2.38;;;;;;;10.53;45.65;102981.06;5090171;22;20052;-89
2022/04/16 19:23:50;;;;;;;3.25;2.40;;;;;;;10.38;44.82;102991.09;4991146;28;20035;-90
2022/04/16 19:26:47;;;;;;;5.78;2.05;;;;;;;10.26;45.81;102989.03;4991527;28;20038;-90
2022/04/16 19:29:22;;;;;;;3.30;2.30;;;;;;;10.08;45.12;102975.38;4988000;23;20170;-88
2022/04/16 19:31:50;;;;;;;3.85;2.40;;;;;;;10.08;47.61;102978.88;5033829;28;20071;-89
2022/04/16 19:44:37;;;;;;;3.35;2.60;;;;;;;9.70;45.50;102968.63;4872451;29;20047;-90
2022/04/16 19:47:45;;;;;;;;;;;;;;;;;;;;;
2022/04/16 19:56:53;;;;;;;5.15;2.67;;;;;;;9.50;46.83;102985.44;5193194;22;20061;-90
2022/04/16 19:59:47;;;;;;;4.30;2.72;;;;;;;9.45;46.39;102987.03;5086157;28;20051;-89
2022/04/16 20:02:51;;;;;;;6.70;2.60;;;;;;;9.29;47.86;102977.50;5090313;28;20020;-90
2022/04/16 20:16:05;;;;;;;5.50;3.13;;;;;;;9.03;48.42;102981.63;4964178;28;20049;-89
2022/04/16 20:26:18;;;;;;;5.82;3.25;;;;;;;8.71;48.75;102975.84;4916969;29;20496;-88
2022/04/16 20:29:08;;;;;;;5.07;3.03;;;;;;;8.60;49.84;102977.16;4916284;29;20070;-90
2022/04/16 20:45:30;;;;;;;8.40;3.83;;;;;;;8.24;52.31;102957.47;4878335;29;20350;-90
2022/04/16 20:48:37;;;;;;;5.28;3.60;;;;;;;8.21;50.82;102965.03;4879306;29;20115;-90
2022/04/16 20:53:49;;;;;;;5.68;3.85;;;;;;;8.07;51.44;102954.22;4993684;28;20042;-91
2022/04/16 20:56:18;;;;;;;6.03;3.93;;;;;;;8.04;52.21;102944.72;5035887;28;20040;-90
2022/04/16 20:59:39;;;;;;;5.28;3.65;;;;;;;8.03;51.30;102958.28;5074408;28;20029;-90
2022/04/16 21:08:17;;;;;;;5.90;4.05;;;;;;;7.69;51.66;102935.72;4934799;29;20109;-90
2022/04/16 21:10:55;;;;;;;5.68;3.70;;;;;;;7.58;53.17;102923.66;5058613;28;20048;-89
2022/04/16 21:14:07;;;;;;;8.93;4.00;;;;;;;7.58;53.15;102934.34;4994996;28;20493;-89
2022/04/16 21:16:35;;;;;;;7.80;3.93;;;;;;;7.46;54.51;102925.16;5012796;28;20037;-89
2022/04/16 21:21:33;;;;;;;6.15;3.72;;;;;;;7.20;54.58;102905.94;5072688;28;20041;-89
2022/04/16 21:24:11;;;;;;;6.18;4.15;;;;;;;7.28;55.03;102918.38;5076546;28;20028;-88
2022/04/16 21:27:05;;;;;;;7.32;4.60;;;;;;;7.19;54.21;102919.44;5075867;28;20085;-90
2022/04/16 21:37:17;;;;;;;;;;;;;;;;;;;;;
2022/04/16 21:40:14;;;;;;;8.05;4.30;;;;;;;7.07;54.29;102916.41;5059245;28;20037;-91
2022/04/16 21:43:28;;;;;;;6.95;4.13;;;;;;;7.02;54.21;102924.94;5074286;28;20036;-89
2022/04/16 21:46:36;;;;;;;8.83;4.40;;;;;;;6.90;55.02;102910.44;5047361;28;20033;-88
2022/04/16 22:04:48;;;;;;;7.20;5.13;;;;;;;6.67;55.96;102908.63;5201661;22;20060;-90
2022/04/16 22:11:07;;;;;;;8.57;4.97;;;;;;;6.50;56.27;102902.59;5054204;28;20029;-90
2022/04/16 22:17:10;;;;;;;9.43;4.70;;;;;;;6.38;54.83;102888.91;5053796;28;20036;-89
2022/04/16 22:25:37;;;;;;;9.98;5.15;;;;;;;6.45;54.62;102913.00;4894528;29;20052;-90
2022/04/16 22:45:52;;;;;;;9.77;4.95;;;;;;;6.08;56.37;102927.88;4821043;29;20066;-88
2022/04/16 22:56:08;;;;;;;11.50;5.03;;;;;;;5.93;55.94;102925.94;4951703;28;20051;-89
2022/04/16 22:59:24;;;;;;;8.30;5.00;;;;;;;5.87;57.09;102916.00;4950691;28;20059;-89
2022/04/16 23:19:58;;;;;;;11.48;5.72;;;;;;;5.68;55.47;102891.47;4855008;29;20060;-88
2022/04/16 23:23:29;;;;;;;;;;;;;;;;;;;;;
2022/04/16 23:26:22;;;;;;;8.40;5.90;;;;;;;5.74;55.92;102892.59;4913515;29;20276;-89
2022/04/16 23:29:50;;;;;;;9.68;6.07;;;;;;;5.68;56.14;102896.81;4922786;29;20126;-89
2022/04/16 23:42:16;;;;;;;11.27;6.13;;;;;;;5.31;56.90;102892.97;4814840;28;20076;-89
2022/04/16 23:47:50;;;;;;;;;;;;;;;;;;;;;
2022/04/16 23:50:16;;;;;;;10.23;6.45;;;;;;;5.18;58.16;102874.91;5038436;28;20108;-89
2022/04/16 23:53:21;;;;;;;9.70;5.90;;;;;;;5.09;57.73;102862.66;5044303;28;20048;-89
2022/04/16 23:55:48;;;;;;;9.55;5.60;;;;;;;5.18;56.81;102868.75;5046534;28;20051;-89
2022/04/16 23:58:14;;;;;;;8.77;5.28;;;;;;;5.20;55.66;102872.09;5044269;28;20026;-89
